sensor_id;sensor_type;location;lat;lon;timestamp;P1;durP1;ratioP1;P2;durP2;ratioP2
22916;SDS011;11624;53.250;7.456;2024-03-23T00:52:04;27.35;;;3.97;;
22916;SDS011;11624;53.250;7.456;2024-03-23T00:54:31;23.27;;;5.10;;
22916;SDS011;11624;53.250;7.456;2024-03-23T00:56:58;17.70;;;3.55;;
22916;SDS011;11624;53.250;7.456;2024-03-23T00:59:25;24.65;;;4.00;;
22916;SDS011;11624;53.250;7.456;2024-03-23T01:01:54;24.30;;;4.80;;
22916;SDS011;11624;53.250;7.456;2024-03-23T01:04:20;19.27;;;3.60;;
22916;SDS011;11624;53.250;7.456;2024-03-23T01:06:47;23.48;;;4.30;;
22916;SDS011;11624;53.250;7.456;2024-03-23T01:09:15;30.20;;;5.13;;
22916;SDS011;11624;53.250;7.456;2024-03-23T01:11:43;22.05;;;4.82;;
22916;SDS011;11624;53.250;7.456;2024-03-23T01:14:09;20.25;;;4.63;;
22916;SDS011;11624;53.250;7.456;2024-03-23T01:16:37;20.38;;;4.22;;
22916;SDS011;11624;53.250;7.456;2024-03-23T01:19:03;27.13;;;5.28;;
22916;SDS011;11624;53.250;7.456;2024-03-23T01:21:31;22.50;;;4.68;;
22916;SDS011;11624;53.250;7.456;2024-03-23T01:23:57;23.75;;;4.55;;
22916;SDS011;11624;53.250;7.456;2024-03-23T01:26:26;24.85;;;4.28;;
22916;SDS011;11624;53.250;7.456;2024-03-23T01:28:53;29.55;;;5.45;;
22916;SDS011;11624;53.250;7.456;2024-03-23T01:31:20;30.23;;;4.93;;
22916;SDS011;11624;53.250;7.456;2024-03-23T01:33:47;27.25;;;5.50;;
22916;SDS011;11624;53.250;7.456;2024-03-23T01:36:14;25.70;;;4.53;;
22916;SDS011;11624;53.250;7.456;2024-03-23T01:38:40;26.50;;;4.95;;
22916;SDS011;11624;53.250;7.456;2024-03-23T01:41:08;22.55;;;5.15;;
22916;SDS011;11624;53.250;7.456;2024-03-23T01:43:35;26.42;;;4.97;;
22916;SDS011;11624;53.250;7.456;2024-03-23T01:46:03;21.00;;;5.00;;
22916;SDS011;11624;53.250;7.456;2024-03-23T01:48:29;26.73;;;4.88;;
22916;SDS011;11624;53.250;7.456;2024-03-23T01:50:57;25.55;;;5.05;;
22916;SDS011;11624;53.250;7.456;2024-03-23T01:53:24;23.17;;;4.32;;
22916;SDS011;11624;53.250;7.456;2024-03-23T01:55:52;23.65;;;4.45;;
22916;SDS011;11624;53.250;7.456;2024-03-23T01:58:18;24.92;;;5.07;;
22916;SDS011;11624;53.250;7.456;2024-03-23T02:00:47;21.25;;;4.30;;
22916;SDS011;11624;53.250;7.456;2024-03-23T02:03:23;25.13;;;4.10;;
22916;SDS011;11624;53.250;7.456;2024-03-23T02:05:51;26.60;;;4.57;;
22916;SDS011;11624;53.250;7.456;2024-03-23T02:08:19;26.52;;;5.40;;
22916;SDS011;11624;53.250;7.456;2024-03-23T02:10:48;28.33;;;4.95;;
22916;SDS011;11624;53.250;7.456;2024-03-23T02:13:15;26.42;;;4.72;;
22916;SDS011;11624;53.250;7.456;2024-03-23T02:15:43;23.80;;;4.22;;
22916;SDS011;11624;53.250;7.456;2024-03-23T02:18:11;26.63;;;4.32;;
22916;SDS011;11624;53.250;7.456;2024-03-23T02:20:39;32.28;;;4.55;;
22916;SDS011;11624;53.250;7.456;2024-03-23T02:23:09;27.38;;;5.38;;
22916;SDS011;11624;53.250;7.456;2024-03-23T02:25:40;22.83;;;4.55;;
22916;SDS011;11624;53.250;7.456;2024-03-23T02:28:06;23.77;;;5.15;;
22916;SDS011;11624;53.250;7.456;2024-03-23T02:30:34;28.92;;;4.75;;
22916;SDS011;11624;53.250;7.456;2024-03-23T02:33:00;22.95;;;4.35;;
22916;SDS011;11624;53.250;7.456;2024-03-23T02:35:28;24.80;;;3.60;;
22916;SDS011;11624;53.250;7.456;2024-03-23T02:37:54;28.08;;;4.15;;
22916;SDS011;11624;53.250;7.456;2024-03-23T02:40:24;25.27;;;4.32;;
22916;SDS011;11624;53.250;7.456;2024-03-23T02:42:51;25.20;;;3.95;;
22916;SDS011;11624;53.250;7.456;2024-03-23T02:45:18;24.20;;;4.07;;
22916;SDS011;11624;53.250;7.456;2024-03-23T02:47:45;28.98;;;5.38;;
22916;SDS011;11624;53.250;7.456;2024-03-23T02:50:12;25.45;;;4.43;;
22916;SDS011;11624;53.250;7.456;2024-03-23T02:52:41;25.52;;;4.50;;
22916;SDS011;11624;53.250;7.456;2024-03-23T02:55:08;18.70;;;4.22;;
22916;SDS011;11624;53.250;7.456;2024-03-23T02:57:36;32.65;;;4.85;;
22916;SDS011;11624;53.250;7.456;2024-03-23T03:00:04;24.23;;;4.43;;
22916;SDS011;11624;53.250;7.456;2024-03-23T03:02:32;22.63;;;4.78;;
22916;SDS011;11624;53.250;7.456;2024-03-23T03:05:00;25.58;;;4.78;;
22916;SDS011;11624;53.250;7.456;2024-03-23T03:07:26;24.38;;;4.93;;
22916;SDS011;11624;53.250;7.456;2024-03-23T03:09:54;30.70;;;5.13;;
22916;SDS011;11624;53.250;7.456;2024-03-23T03:12:20;26.02;;;4.70;;
22916;SDS011;11624;53.250;7.456;2024-03-23T03:14:49;26.08;;;5.15;;
22916;SDS011;11624;53.250;7.456;2024-03-23T03:17:15;23.02;;;4.65;;
22916;SDS011;11624;53.250;7.456;2024-03-23T03:19:43;24.92;;;4.47;;
22916;SDS011;11624;53.250;7.456;2024-03-23T03:22:09;28.17;;;4.63;;
22916;SDS011;11624;53.250;7.456;2024-03-23T03:24:37;28.65;;;4.93;;
22916;SDS011;11624;53.250;7.456;2024-03-23T03:27:03;21.55;;;4.72;;
22916;SDS011;11624;53.250;7.456;2024-03-23T03:29:32;23.10;;;4.90;;
22916;SDS011;11624;53.250;7.456;2024-03-23T03:32:03;26.17;;;4.95;;
22916;SDS011;11624;53.250;7.456;2024-03-23T03:34:30;33.30;;;4.43;;
22916;SDS011;11624;53.250;7.456;2024-03-23T03:36:57;23.45;;;4.40;;
22916;SDS011;11624;53.250;7.456;2024-03-23T03:39:25;26.30;;;4.80;;
22916;SDS011;11624;53.250;7.456;2024-03-23T03:41:51;20.52;;;4.32;;
22916;SDS011;11624;53.250;7.456;2024-03-23T03:44:19;26.50;;;4.45;;
22916;SDS011;11624;53.250;7.456;2024-03-23T03:46:45;25.30;;;4.72;;
22916;SDS011;11624;53.250;7.456;2024-03-23T03:49:14;23.50;;;4.70;;
22916;SDS011;11624;53.250;7.456;2024-03-23T03:51:41;23.13;;;4.38;;
22916;SDS011;11624;53.250;7.456;2024-03-23T03:54:08;22.15;;;4.10;;
22916;SDS011;11624;53.250;7.456;2024-03-23T03:56:35;28.00;;;4.63;;
22916;SDS011;11624;53.250;7.456;2024-03-23T03:59:02;24.42;;;4.65;;
22916;SDS011;11624;53.250;7.456;2024-03-23T04:01:28;27.02;;;5.05;;
22916;SDS011;11624;53.250;7.456;2024-03-23T04:03:56;17.98;;;3.80;;
22916;SDS011;11624;53.250;7.456;2024-03-23T04:06:24;20.02;;;4.28;;
22916;SDS011;11624;53.250;7.456;2024-03-23T04:08:51;29.67;;;4.50;;
22916;SDS011;11624;53.250;7.456;2024-03-23T04:11:17;36.00;;;5.68;;
22916;SDS011;11624;53.250;7.456;2024-03-23T04:13:45;27.25;;;5.10;;
22916;SDS011;11624;53.250;7.456;2024-03-23T04:16:11;23.90;;;4.60;;
22916;SDS011;11624;53.250;7.456;2024-03-23T04:18:39;24.70;;;3.90;;
22916;SDS011;11624;53.250;7.456;2024-03-23T04:21:05;20.70;;;4.43;;
22916;SDS011;11624;53.250;7.456;2024-03-23T04:23:34;18.52;;;3.97;;
22916;SDS011;11624;53.250;7.456;2024-03-23T04:26:04;30.55;;;5.68;;
22916;SDS011;11624;53.250;7.456;2024-03-23T04:28:32;19.95;;;5.07;;
22916;SDS011;11624;53.250;7.456;2024-03-23T04:30:58;30.70;;;4.72;;
22916;SDS011;11624;53.250;7.456;2024-03-23T04:33:30;20.08;;;4.32;;
22916;SDS011;11624;53.250;7.456;2024-03-23T04:35:57;22.08;;;4.18;;
22916;SDS011;11624;53.250;7.456;2024-03-23T04:38:24;21.33;;;4.25;;
22916;SDS011;11624;53.250;7.456;2024-03-23T04:40:57;25.67;;;4.65;;
22916;SDS011;11624;53.250;7.456;2024-03-23T04:43:25;26.98;;;4.88;;
22916;SDS011;11624;53.250;7.456;2024-03-23T04:45:52;32.47;;;4.95;;
22916;SDS011;11624;53.250;7.456;2024-03-23T04:48:20;21.55;;;3.72;;
22916;SDS011;11624;53.250;7.456;2024-03-23T04:50:49;24.23;;;4.43;;
22916;SDS011;11624;53.250;7.456;2024-03-23T04:53:16;20.23;;;4.28;;
22916;SDS011;11624;53.250;7.456;2024-03-23T04:55:44;22.35;;;4.30;;
22916;SDS011;11624;53.250;7.456;2024-03-23T04:58:12;19.13;;;4.68;;
22916;SDS011;11624;53.250;7.456;2024-03-23T05:00:39;21.95;;;3.63;;
22916;SDS011;11624;53.250;7.456;2024-03-23T05:03:06;21.20;;;4.15;;
22916;SDS011;11624;53.250;7.456;2024-03-23T05:05:34;21.98;;;4.78;;
22916;SDS011;11624;53.250;7.456;2024-03-23T05:08:00;23.67;;;4.20;;
22916;SDS011;11624;53.250;7.456;2024-03-23T05:10:27;24.83;;;4.35;;
22916;SDS011;11624;53.250;7.456;2024-03-23T05:12:54;26.15;;;4.45;;
22916;SDS011;11624;53.250;7.456;2024-03-23T05:15:23;23.77;;;5.75;;
22916;SDS011;11624;53.250;7.456;2024-03-23T05:17:49;19.80;;;4.13;;
22916;SDS011;11624;53.250;7.456;2024-03-23T05:20:17;19.60;;;4.13;;
22916;SDS011;11624;53.250;7.456;2024-03-23T05:22:44;23.52;;;4.13;;
22916;SDS011;11624;53.250;7.456;2024-03-23T05:25:12;24.45;;;4.75;;
22916;SDS011;11624;53.250;7.456;2024-03-23T05:27:38;22.80;;;5.10;;
22916;SDS011;11624;53.250;7.456;2024-03-23T05:30:06;26.63;;;4.47;;
22916;SDS011;11624;53.250;7.456;2024-03-23T05:32:35;19.25;;;4.55;;
22916;SDS011;11624;53.250;7.456;2024-03-23T05:35:06;27.53;;;5.13;;
22916;SDS011;11624;53.250;7.456;2024-03-23T05:37:33;25.90;;;5.03;;
22916;SDS011;11624;53.250;7.456;2024-03-23T05:40:01;22.60;;;4.03;;
22916;SDS011;11624;53.250;7.456;2024-03-23T05:42:29;21.95;;;4.15;;
22916;SDS011;11624;53.250;7.456;2024-03-23T05:44:57;23.42;;;4.53;;
22916;SDS011;11624;53.250;7.456;2024-03-23T05:47:23;22.92;;;3.78;;
22916;SDS011;11624;53.250;7.456;2024-03-23T05:49:52;18.83;;;4.73;;
22916;SDS011;11624;53.250;7.456;2024-03-23T05:52:18;16.73;;;3.83;;
22916;SDS011;11624;53.250;7.456;2024-03-23T05:54:47;22.38;;;4.20;;
22916;SDS011;11624;53.250;7.456;2024-03-23T05:57:14;25.52;;;4.97;;
22916;SDS011;11624;53.250;7.456;2024-03-23T05:59:41;17.45;;;3.55;;
22916;SDS011;11624;53.250;7.456;2024-03-23T06:02:08;18.52;;;3.58;;
22916;SDS011;11624;53.250;7.456;2024-03-23T06:04:36;24.00;;;4.25;;
22916;SDS011;11624;53.250;7.456;2024-03-23T06:07:05;24.40;;;4.03;;
22916;SDS011;11624;53.250;7.456;2024-03-23T06:09:35;29.50;;;5.27;;
22916;SDS011;11624;53.250;7.456;2024-03-23T06:12:02;21.50;;;5.18;;
22916;SDS011;11624;53.250;7.456;2024-03-23T06:14:29;22.73;;;4.85;;
22916;SDS011;11624;53.250;7.456;2024-03-23T06:16:56;23.65;;;5.18;;
22916;SDS011;11624;53.250;7.456;2024-03-23T06:19:23;21.08;;;3.97;;
22916;SDS011;11624;53.250;7.456;2024-03-23T06:21:52;20.73;;;3.67;;
22916;SDS011;11624;53.250;7.456;2024-03-23T06:24:21;20.17;;;4.00;;
22916;SDS011;11624;53.250;7.456;2024-03-23T06:26:48;25.23;;;3.97;;
22916;SDS011;11624;53.250;7.456;2024-03-23T06:29:15;16.50;;;3.67;;
22916;SDS011;11624;53.250;7.456;2024-03-23T06:31:42;26.85;;;4.43;;
22916;SDS011;11624;53.250;7.456;2024-03-23T06:34:09;31.27;;;4.97;;
22916;SDS011;11624;53.250;7.456;2024-03-23T06:36:35;21.40;;;3.70;;
22916;SDS011;11624;53.250;7.456;2024-03-23T06:39:04;18.67;;;3.75;;
22916;SDS011;11624;53.250;7.456;2024-03-23T06:41:32;24.38;;;4.78;;
22916;SDS011;11624;53.250;7.456;2024-03-23T06:44:01;23.17;;;4.47;;
22916;SDS011;11624;53.250;7.456;2024-03-23T06:46:28;16.02;;;3.75;;
22916;SDS011;11624;53.250;7.456;2024-03-23T06:48:54;24.98;;;5.13;;
22916;SDS011;11624;53.250;7.456;2024-03-23T06:51:22;18.23;;;4.68;;
22916;SDS011;11624;53.250;7.456;2024-03-23T06:53:49;15.50;;;3.30;;
22916;SDS011;11624;53.250;7.456;2024-03-23T06:56:16;16.77;;;3.67;;
22916;SDS011;11624;53.250;7.456;2024-03-23T06:58:44;13.80;;;3.38;;
22916;SDS011;11624;53.250;7.456;2024-03-23T07:01:12;13.00;;;3.25;;
22916;SDS011;11624;53.250;7.456;2024-03-23T07:03:38;16.83;;;3.97;;
22916;SDS011;11624;53.250;7.456;2024-03-23T07:06:05;16.35;;;3.42;;
22916;SDS011;11624;53.250;7.456;2024-03-23T07:08:32;12.88;;;3.20;;
22916;SDS011;11624;53.250;7.456;2024-03-23T07:10:59;15.05;;;3.30;;
22916;SDS011;11624;53.250;7.456;2024-03-23T07:13:25;17.92;;;3.70;;
22916;SDS011;11624;53.250;7.456;2024-03-23T07:15:55;18.05;;;3.05;;
22916;SDS011;11624;53.250;7.456;2024-03-23T07:18:22;14.65;;;3.58;;
22916;SDS011;11624;53.250;7.456;2024-03-23T07:20:53;13.90;;;2.47;;
22916;SDS011;11624;53.250;7.456;2024-03-23T07:23:20;17.48;;;2.70;;
22916;SDS011;11624;53.250;7.456;2024-03-23T07:25:56;16.80;;;2.88;;
22916;SDS011;11624;53.250;7.456;2024-03-23T07:28:22;17.10;;;2.85;;
22916;SDS011;11624;53.250;7.456;2024-03-23T07:31:01;21.10;;;3.15;;
22916;SDS011;11624;53.250;7.456;2024-03-23T07:33:28;12.77;;;2.40;;
22916;SDS011;11624;53.250;7.456;2024-03-23T07:35:56;11.27;;;2.17;;
22916;SDS011;11624;53.250;7.456;2024-03-23T07:38:23;12.00;;;2.05;;
22916;SDS011;11624;53.250;7.456;2024-03-23T07:40:50;9.75;;;1.70;;
22916;SDS011;11624;53.250;7.456;2024-03-23T07:43:21;10.52;;;1.77;;
22916;SDS011;11624;53.250;7.456;2024-03-23T07:45:52;6.25;;;1.50;;
22916;SDS011;11624;53.250;7.456;2024-03-23T07:48:20;8.27;;;1.70;;
22916;SDS011;11624;53.250;7.456;2024-03-23T07:50:55;7.25;;;1.50;;
22916;SDS011;11624;53.250;7.456;2024-03-23T07:53:23;4.03;;;1.02;;
22916;SDS011;11624;53.250;7.456;2024-03-23T07:55:54;3.45;;;1.13;;
22916;SDS011;11624;53.250;7.456;2024-03-23T07:58:21;7.82;;;1.35;;
22916;SDS011;11624;53.250;7.456;2024-03-23T08:00:49;5.25;;;1.27;;
22916;SDS011;11624;53.250;7.456;2024-03-23T08:03:15;3.45;;;1.10;;
22916;SDS011;11624;53.250;7.456;2024-03-23T08:05:44;6.07;;;1.38;;
22916;SDS011;11624;53.250;7.456;2024-03-23T08:08:10;4.65;;;1.27;;
22916;SDS011;11624;53.250;7.456;2024-03-23T08:10:46;7.18;;;1.42;;
22916;SDS011;11624;53.250;7.456;2024-03-23T08:13:13;10.30;;;1.52;;
22916;SDS011;11624;53.250;7.456;2024-03-23T08:15:40;6.65;;;1.40;;
22916;SDS011;11624;53.250;7.456;2024-03-23T08:18:07;9.77;;;1.83;;
22916;SDS011;11624;53.250;7.456;2024-03-23T08:20:34;8.90;;;1.60;;
22916;SDS011;11624;53.250;7.456;2024-03-23T08:23:02;7.82;;;1.80;;
22916;SDS011;11624;53.250;7.456;2024-03-23T08:25:30;10.57;;;2.03;;
22916;SDS011;11624;53.250;7.456;2024-03-23T08:27:57;9.88;;;2.03;;
22916;SDS011;11624;53.250;7.456;2024-03-23T08:30:25;9.85;;;1.83;;
22916;SDS011;11624;53.250;7.456;2024-03-23T08:32:51;9.32;;;2.30;;
22916;SDS011;11624;53.250;7.456;2024-03-23T08:35:19;7.75;;;1.70;;
22916;SDS011;11624;53.250;7.456;2024-03-23T08:37:45;11.50;;;2.42;;
22916;SDS011;11624;53.250;7.456;2024-03-23T08:40:14;13.88;;;2.55;;
22916;SDS011;11624;53.250;7.456;2024-03-23T08:42:41;10.75;;;2.13;;
22916;SDS011;11624;53.250;7.456;2024-03-23T08:45:08;10.60;;;2.53;;
22916;SDS011;11624;53.250;7.456;2024-03-23T08:47:35;7.80;;;2.13;;
22916;SDS011;11624;53.250;7.456;2024-03-23T08:50:02;9.35;;;2.00;;
22916;SDS011;11624;53.250;7.456;2024-03-23T08:52:29;11.05;;;1.92;;
22916;SDS011;11624;53.250;7.456;2024-03-23T08:54:56;11.50;;;2.30;;
22916;SDS011;11624;53.250;7.456;2024-03-23T08:57:25;9.57;;;1.70;;
22916;SDS011;11624;53.250;7.456;2024-03-23T08:59:52;8.30;;;2.17;;
22916;SDS011;11624;53.250;7.456;2024-03-23T09:02:18;9.77;;;2.60;;
22916;SDS011;11624;53.250;7.456;2024-03-23T09:04:46;10.15;;;2.13;;
22916;SDS011;11624;53.250;7.456;2024-03-23T09:07:12;11.68;;;2.08;;
22916;SDS011;11624;53.250;7.456;2024-03-23T09:09:39;10.48;;;2.05;;
22916;SDS011;11624;53.250;7.456;2024-03-23T09:12:06;12.65;;;1.98;;
22916;SDS011;11624;53.250;7.456;2024-03-23T09:14:35;11.52;;;2.30;;
22916;SDS011;11624;53.250;7.456;2024-03-23T09:17:01;15.23;;;2.65;;
22916;SDS011;11624;53.250;7.456;2024-03-23T09:19:31;9.05;;;1.85;;
22916;SDS011;11624;53.250;7.456;2024-03-23T09:21:57;9.57;;;2.22;;
22916;SDS011;11624;53.250;7.456;2024-03-23T09:24:24;8.70;;;1.80;;
22916;SDS011;11624;53.250;7.456;2024-03-23T09:26:51;8.80;;;1.98;;
22916;SDS011;11624;53.250;7.456;2024-03-23T09:29:19;7.22;;;1.92;;
22916;SDS011;11624;53.250;7.456;2024-03-23T09:31:47;7.28;;;1.40;;
22916;SDS011;11624;53.250;7.456;2024-03-23T09:34:14;5.47;;;1.13;;
22916;SDS011;11624;53.250;7.456;2024-03-23T09:36:41;7.30;;;1.20;;
22916;SDS011;11624;53.250;7.456;2024-03-23T09:39:08;5.43;;;1.42;;
22916;SDS011;11624;53.250;7.456;2024-03-23T09:41:35;9.10;;;1.65;;
22916;SDS011;11624;53.250;7.456;2024-03-23T09:44:03;5.53;;;1.60;;
22916;SDS011;11624;53.250;7.456;2024-03-23T09:46:31;7.05;;;1.60;;
22916;SDS011;11624;53.250;7.456;2024-03-23T09:49:03;7.53;;;1.55;;
22916;SDS011;11624;53.250;7.456;2024-03-23T09:51:30;12.52;;;2.40;;
22916;SDS011;11624;53.250;7.456;2024-03-23T09:53:58;5.85;;;1.80;;
22916;SDS011;11624;53.250;7.456;2024-03-23T09:56:24;10.65;;;1.95;;
22916;SDS011;11624;53.250;7.456;2024-03-23T09:58:52;7.38;;;1.73;;
22916;SDS011;11624;53.250;7.456;2024-03-23T10:01:26;12.02;;;2.88;;
22916;SDS011;11624;53.250;7.456;2024-03-23T10:03:53;10.52;;;2.40;;
22916;SDS011;11624;53.250;7.456;2024-03-23T10:06:22;5.93;;;1.45;;
22916;SDS011;11624;53.250;7.456;2024-03-23T10:08:51;9.93;;;2.03;;
22916;SDS011;11624;53.250;7.456;2024-03-23T10:11:18;9.40;;;1.92;;
22916;SDS011;11624;53.250;7.456;2024-03-23T10:13:46;7.90;;;2.42;;
22916;SDS011;11624;53.250;7.456;2024-03-23T10:16:20;8.88;;;1.77;;
22916;SDS011;11624;53.250;7.456;2024-03-23T10:18:48;9.45;;;1.80;;
22916;SDS011;11624;53.250;7.456;2024-03-23T10:21:15;8.98;;;1.90;;
22916;SDS011;11624;53.250;7.456;2024-03-23T10:23:44;10.35;;;2.47;;
22916;SDS011;11624;53.250;7.456;2024-03-23T10:26:12;8.02;;;2.10;;
22916;SDS011;11624;53.250;7.456;2024-03-23T10:28:54;9.13;;;2.15;;
22916;SDS011;11624;53.250;7.456;2024-03-23T10:31:23;7.40;;;1.65;;
22916;SDS011;11624;53.250;7.456;2024-03-23T10:33:51;8.13;;;1.88;;
22916;SDS011;11624;53.250;7.456;2024-03-23T10:36:20;11.13;;;2.00;;
22916;SDS011;11624;53.250;7.456;2024-03-23T10:38:49;8.43;;;1.83;;
22916;SDS011;11624;53.250;7.456;2024-03-23T10:41:16;8.95;;;1.48;;
22916;SDS011;11624;53.250;7.456;2024-03-23T10:43:45;5.00;;;1.15;;
22916;SDS011;11624;53.250;7.456;2024-03-23T10:46:12;7.72;;;1.20;;
22916;SDS011;11624;53.250;7.456;2024-03-23T10:48:40;6.47;;;1.23;;
22916;SDS011;11624;53.250;7.456;2024-03-23T10:51:06;5.60;;;0.98;;
22916;SDS011;11624;53.250;7.456;2024-03-23T10:53:34;3.88;;;0.90;;
22916;SDS011;11624;53.250;7.456;2024-03-23T10:56:04;3.03;;;0.55;;
22916;SDS011;11624;53.250;7.456;2024-03-23T10:58:35;2.95;;;0.80;;
22916;SDS011;11624;53.250;7.456;2024-03-23T11:01:04;2.85;;;0.60;;
22916;SDS011;11624;53.250;7.456;2024-03-23T11:03:32;2.80;;;1.02;;
22916;SDS011;11624;53.250;7.456;2024-03-23T11:05:59;6.47;;;1.90;;
22916;SDS011;11624;53.250;7.456;2024-03-23T11:08:30;7.22;;;1.30;;
22916;SDS011;11624;53.250;7.456;2024-03-23T11:11:15;8.90;;;1.00;;
22916;SDS011;11624;53.250;7.456;2024-03-23T11:13:44;5.35;;;1.20;;
22916;SDS011;11624;53.250;7.456;2024-03-23T11:16:13;4.28;;;1.25;;
22916;SDS011;11624;53.250;7.456;2024-03-23T11:18:41;8.20;;;1.55;;
22916;SDS011;11624;53.250;7.456;2024-03-23T11:21:09;4.30;;;1.08;;
22916;SDS011;11624;53.250;7.456;2024-03-23T11:23:37;7.25;;;1.63;;
22916;SDS011;11624;53.250;7.456;2024-03-23T11:26:07;4.70;;;1.45;;
22916;SDS011;11624;53.250;7.456;2024-03-23T11:28:36;10.63;;;1.67;;
22916;SDS011;11624;53.250;7.456;2024-03-23T11:31:08;6.20;;;1.30;;
22916;SDS011;11624;53.250;7.456;2024-03-23T11:33:37;12.65;;;2.00;;
22916;SDS011;11624;53.250;7.456;2024-03-23T11:36:04;6.95;;;1.73;;
22916;SDS011;11624;53.250;7.456;2024-03-23T11:38:36;8.50;;;1.90;;
22916;SDS011;11624;53.250;7.456;2024-03-23T11:41:02;9.85;;;1.90;;
22916;SDS011;11624;53.250;7.456;2024-03-23T11:43:30;9.90;;;1.88;;
22916;SDS011;11624;53.250;7.456;2024-03-23T11:45:58;8.18;;;1.42;;
22916;SDS011;11624;53.250;7.456;2024-03-23T11:48:28;7.35;;;1.20;;
22916;SDS011;11624;53.250;7.456;2024-03-23T11:50:56;9.00;;;1.60;;
22916;SDS011;11624;53.250;7.456;2024-03-23T11:53:24;6.75;;;1.48;;
22916;SDS011;11624;53.250;7.456;2024-03-23T11:55:53;8.27;;;1.60;;
22916;SDS011;11624;53.250;7.456;2024-03-23T11:58:22;7.03;;;1.38;;
22916;SDS011;11624;53.250;7.456;2024-03-23T12:00:49;7.47;;;1.50;;
22916;SDS011;11624;53.250;7.456;2024-03-23T12:03:19;5.20;;;1.40;;
22916;SDS011;11624;53.250;7.456;2024-03-23T12:05:48;13.23;;;2.22;;
22916;SDS011;11624;53.250;7.456;2024-03-23T12:08:22;9.05;;;1.70;;
22916;SDS011;11624;53.250;7.456;2024-03-23T12:10:50;3.65;;;1.10;;
22916;SDS011;11624;53.250;7.456;2024-03-23T12:13:19;8.73;;;1.77;;
22916;SDS011;11624;53.250;7.456;2024-03-23T12:15:46;10.82;;;1.70;;
22916;SDS011;11624;53.250;7.456;2024-03-23T12:18:14;7.82;;;1.55;;
22916;SDS011;11624;53.250;7.456;2024-03-23T12:20:42;9.32;;;1.40;;
22916;SDS011;11624;53.250;7.456;2024-03-23T12:23:10;5.80;;;1.73;;
22916;SDS011;11624;53.250;7.456;2024-03-23T12:25:41;5.95;;;1.55;;
22916;SDS011;11624;53.250;7.456;2024-03-23T12:28:08;5.57;;;1.52;;
22916;SDS011;11624;53.250;7.456;2024-03-23T12:30:35;4.00;;;1.13;;
22916;SDS011;11624;53.250;7.456;2024-03-23T12:33:05;10.23;;;1.80;;
22916;SDS011;11624;53.250;7.456;2024-03-23T12:35:31;6.75;;;1.15;;
22916;SDS011;11624;53.250;7.456;2024-03-23T12:38:00;9.57;;;1.80;;
22916;SDS011;11624;53.250;7.456;2024-03-23T12:40:27;6.43;;;1.85;;
22916;SDS011;11624;53.250;7.456;2024-03-23T12:42:54;11.75;;;1.95;;
22916;SDS011;11624;53.250;7.456;2024-03-23T12:45:21;8.73;;;1.77;;
22916;SDS011;11624;53.250;7.456;2024-03-23T12:47:49;7.43;;;1.92;;
22916;SDS011;11624;53.250;7.456;2024-03-23T12:50:18;10.05;;;1.80;;
22916;SDS011;11624;53.250;7.456;2024-03-23T12:52:44;9.77;;;1.67;;
22916;SDS011;11624;53.250;7.456;2024-03-23T12:55:13;9.32;;;1.98;;
22916;SDS011;11624;53.250;7.456;2024-03-23T12:57:39;8.88;;;1.67;;
22916;SDS011;11624;53.250;7.456;2024-03-23T13:00:07;9.18;;;1.60;;
22916;SDS011;11624;53.250;7.456;2024-03-23T13:02:37;6.63;;;1.80;;
22916;SDS011;11624;53.250;7.456;2024-03-23T13:05:05;18.33;;;2.30;;
22916;SDS011;11624;53.250;7.456;2024-03-23T13:07:33;7.28;;;1.45;;
22916;SDS011;11624;53.250;7.456;2024-03-23T13:10:03;5.00;;;1.38;;
22916;SDS011;11624;53.250;7.456;2024-03-23T13:12:31;8.63;;;1.20;;
22916;SDS011;11624;53.250;7.456;2024-03-23T13:14:59;9.07;;;1.42;;
22916;SDS011;11624;53.250;7.456;2024-03-23T13:17:26;11.02;;;1.70;;
22916;SDS011;11624;53.250;7.456;2024-03-23T13:19:53;4.22;;;0.95;;
22916;SDS011;11624;53.250;7.456;2024-03-23T13:22:21;4.28;;;1.10;;
22916;SDS011;11624;53.250;7.456;2024-03-23T13:24:48;1.42;;;0.50;;
22916;SDS011;11624;53.250;7.456;2024-03-23T13:27:15;1.92;;;0.50;;
22916;SDS011;11624;53.250;7.456;2024-03-23T13:29:44;1.95;;;0.57;;
22916;SDS011;11624;53.250;7.456;2024-03-23T13:32:12;4.18;;;0.73;;
22916;SDS011;11624;53.250;7.456;2024-03-23T13:34:40;3.25;;;0.93;;
22916;SDS011;11624;53.250;7.456;2024-03-23T13:37:06;3.25;;;0.55;;
22916;SDS011;11624;53.250;7.456;2024-03-23T13:39:35;5.82;;;1.00;;
22916;SDS011;11624;53.250;7.456;2024-03-23T13:42:01;8.80;;;1.33;;
22916;SDS011;11624;53.250;7.456;2024-03-23T13:44:30;6.60;;;1.27;;
22916;SDS011;11624;53.250;7.456;2024-03-23T13:46:58;6.25;;;1.42;;
22916;SDS011;11624;53.250;7.456;2024-03-23T13:49:26;6.55;;;1.40;;
22916;SDS011;11624;53.250;7.456;2024-03-23T13:51:53;10.75;;;1.90;;
22916;SDS011;11624;53.250;7.456;2024-03-23T13:54:21;4.07;;;0.93;;
22916;SDS011;11624;53.250;7.456;2024-03-23T13:56:48;6.20;;;1.30;;
22916;SDS011;11624;53.250;7.456;2024-03-23T13:59:16;7.20;;;1.30;;
22916;SDS011;11624;53.250;7.456;2024-03-23T14:01:42;7.68;;;1.00;;
22916;SDS011;11624;53.250;7.456;2024-03-23T14:04:12;6.30;;;1.30;;
22916;SDS011;11624;53.250;7.456;2024-03-23T14:06:39;5.38;;;1.65;;
22916;SDS011;11624;53.250;7.456;2024-03-23T14:09:07;8.48;;;1.77;;
22916;SDS011;11624;53.250;7.456;2024-03-23T14:11:34;11.55;;;1.65;;
22916;SDS011;11624;53.250;7.456;2024-03-23T14:14:02;9.75;;;1.83;;
22916;SDS011;11624;53.250;7.456;2024-03-23T14:16:29;8.70;;;2.05;;
22916;SDS011;11624;53.250;7.456;2024-03-23T14:18:57;11.65;;;2.45;;
22916;SDS011;11624;53.250;7.456;2024-03-23T14:21:25;5.65;;;1.38;;
22916;SDS011;11624;53.250;7.456;2024-03-23T14:23:52;11.93;;;2.10;;
22916;SDS011;11624;53.250;7.456;2024-03-23T14:26:19;11.82;;;1.90;;
22916;SDS011;11624;53.250;7.456;2024-03-23T14:28:46;10.85;;;2.08;;
22916;SDS011;11624;53.250;7.456;2024-03-23T14:31:13;7.10;;;1.73;;
22916;SDS011;11624;53.250;7.456;2024-03-23T14:33:40;9.73;;;2.63;;
22916;SDS011;11624;53.250;7.456;2024-03-23T14:36:12;12.93;;;1.90;;
22916;SDS011;11624;53.250;7.456;2024-03-23T14:38:41;9.30;;;2.33;;
22916;SDS011;11624;53.250;7.456;2024-03-23T14:41:07;9.98;;;2.05;;
22916;SDS011;11624;53.250;7.456;2024-03-23T14:43:35;9.18;;;2.00;;
22916;SDS011;11624;53.250;7.456;2024-03-23T14:46:08;8.48;;;1.63;;
22916;SDS011;11624;53.250;7.456;2024-03-23T14:48:36;8.23;;;2.13;;
22916;SDS011;11624;53.250;7.456;2024-03-23T14:51:03;8.10;;;2.10;;
22916;SDS011;11624;53.250;7.456;2024-03-23T14:53:32;9.30;;;1.85;;
22916;SDS011;11624;53.250;7.456;2024-03-23T14:56:01;10.80;;;1.95;;
22916;SDS011;11624;53.250;7.456;2024-03-23T14:58:29;10.60;;;1.40;;
22916;SDS011;11624;53.250;7.456;2024-03-23T15:00:59;6.43;;;1.30;;
22916;SDS011;11624;53.250;7.456;2024-03-23T15:03:27;5.53;;;1.35;;
22916;SDS011;11624;53.250;7.456;2024-03-23T15:05:54;4.85;;;1.50;;
22916;SDS011;11624;53.250;7.456;2024-03-23T15:08:22;6.95;;;1.33;;
22916;SDS011;11624;53.250;7.456;2024-03-23T15:10:48;7.90;;;1.55;;
22916;SDS011;11624;53.250;7.456;2024-03-23T15:13:17;12.02;;;1.75;;
22916;SDS011;11624;53.250;7.456;2024-03-23T15:15:48;13.25;;;2.30;;
22916;SDS011;11624;53.250;7.456;2024-03-23T15:18:15;9.38;;;1.65;;
22916;SDS011;11624;53.250;7.456;2024-03-23T15:20:53;7.53;;;1.80;;
22916;SDS011;11624;53.250;7.456;2024-03-23T15:23:20;11.52;;;1.92;;
22916;SDS011;11624;53.250;7.456;2024-03-23T15:25:53;9.23;;;1.80;;
22916;SDS011;11624;53.250;7.456;2024-03-23T15:28:21;7.18;;;1.80;;
22916;SDS011;11624;53.250;7.456;2024-03-23T15:30:49;8.70;;;1.50;;
22916;SDS011;11624;53.250;7.456;2024-03-23T15:33:16;8.43;;;1.75;;
22916;SDS011;11624;53.250;7.456;2024-03-23T15:35:43;9.75;;;1.80;;